sensor_id;sensor_type;location;lat;lon;timestamp;temperature;humidity
67364;HTU21D;54250;45.572;38.086;2023-03-09T00:00:50;9.29;70.19
67364;HTU21D;54250;45.572;38.086;2023-03-09T00:03:16;9.27;70.28
67364;HTU21D;54250;45.572;38.086;2023-03-09T00:05:43;9.30;70.28
67364;HTU21D;54250;45.572;38.086;2023-03-09T00:08:10;9.34;70.51
67364;HTU21D;54250;45.572;38.086;2023-03-09T00:10:40;9.36;70.30
67364;HTU21D;54250;45.572;38.086;2023-03-09T00:13:06;9.41;70.19
67364;HTU21D;54250;45.572;38.086;2023-03-09T00:15:32;9.47;70.35
67364;HTU21D;54250;45.572;38.086;2023-03-09T00:17:58;9.47;70.55
67364;HTU21D;54250;45.572;38.086;2023-03-09T00:20:24;9.44;70.62
67364;HTU21D;54250;45.572;38.086;2023-03-09T00:22:52;9.39;70.81
67364;HTU21D;54250;45.572;38.086;2023-03-09T00:25:20;9.27;71.09
67364;HTU21D;54250;45.572;38.086;2023-03-09T00:27:48;9.23;71.47
67364;HTU21D;54250;45.572;38.086;2023-03-09T00:30:16;9.20;71.45
67364;HTU21D;54250;45.572;38.086;2023-03-09T00:32:42;9.16;71.47
67364;HTU21D;54250;45.572;38.086;2023-03-09T00:35:08;9.18;71.72
67364;HTU21D;54250;45.572;38.086;2023-03-09T00:37:35;9.22;71.74
67364;HTU21D;54250;45.572;38.086;2023-03-09T00:40:06;9.25;71.57
67364;HTU21D;54250;45.572;38.086;2023-03-09T00:42:37;9.29;71.49
67364;HTU21D;54250;45.572;38.086;2023-03-09T00:45:04;9.31;71.53
67364;HTU21D;54250;45.572;38.086;2023-03-09T00:47:30;9.39;71.60
67364;HTU21D;54250;45.572;38.086;2023-03-09T00:49:56;9.42;71.32
67364;HTU21D;54250;45.572;38.086;2023-03-09T00:52:22;9.47;71.36
67364;HTU21D;54250;45.572;38.086;2023-03-09T00:54:48;9.48;71.32
67364;HTU21D;54250;45.572;38.086;2023-03-09T00:57:20;9.48;71.42
67364;HTU21D;54250;45.572;38.086;2023-03-09T00:59:46;9.50;71.67
67364;HTU21D;54250;45.572;38.086;2023-03-09T01:02:13;9.52;71.66
67364;HTU21D;54250;45.572;38.086;2023-03-09T01:04:39;9.54;71.67
67364;HTU21D;54250;45.572;38.086;2023-03-09T01:07:05;9.56;71.71
67364;HTU21D;54250;45.572;38.086;2023-03-09T01:09:31;9.57;72.01
67364;HTU21D;54250;45.572;38.086;2023-03-09T01:11:57;9.59;71.93
67364;HTU21D;54250;45.572;38.086;2023-03-09T01:14:23;9.56;72.23
67364;HTU21D;54250;45.572;38.086;2023-03-09T01:16:49;9.55;72.27
67364;HTU21D;54250;45.572;38.086;2023-03-09T01:19:15;9.55;72.48
67364;HTU21D;54250;45.572;38.086;2023-03-09T01:21:41;9.55;72.59
67364;HTU21D;54250;45.572;38.086;2023-03-09T01:24:07;9.56;72.61
67364;HTU21D;54250;45.572;38.086;2023-03-09T01:26:33;9.54;72.54
67364;HTU21D;54250;45.572;38.086;2023-03-09T01:28:59;9.52;72.64
67364;HTU21D;54250;45.572;38.086;2023-03-09T01:31:27;9.49;72.91
67364;HTU21D;54250;45.572;38.086;2023-03-09T01:33:53;9.42;73.03
67364;HTU21D;54250;45.572;38.086;2023-03-09T01:36:19;9.37;73.22
67364;HTU21D;54250;45.572;38.086;2023-03-09T01:38:46;9.32;73.55
67364;HTU21D;54250;45.572;38.086;2023-03-09T01:41:13;9.24;73.73
67364;HTU21D;54250;45.572;38.086;2023-03-09T01:43:42;9.18;74.02
67364;HTU21D;54250;45.572;38.086;2023-03-09T01:49:06;9.09;74.40
67364;HTU21D;54250;45.572;38.086;2023-03-09T01:51:40;9.07;74.60
67364;HTU21D;54250;45.572;38.086;2023-03-09T01:54:11;9.03;74.59
67364;HTU21D;54250;45.572;38.086;2023-03-09T01:56:39;8.96;74.60
67364;HTU21D;54250;45.572;38.086;2023-03-09T01:59:07;8.88;74.80
67364;HTU21D;54250;45.572;38.086;2023-03-09T02:01:35;8.83;74.89
67364;HTU21D;54250;45.572;38.086;2023-03-09T02:04:08;8.81;74.84
67364;HTU21D;54250;45.572;38.086;2023-03-09T02:06:36;8.80;75.24
67364;HTU21D;54250;45.572;38.086;2023-03-09T02:09:48;8.76;75.21
67364;HTU21D;54250;45.572;38.086;2023-03-09T02:12:11;8.75;75.33
67364;HTU21D;54250;45.572;38.086;2023-03-09T02:14:37;8.70;75.54
67364;HTU21D;54250;45.572;38.086;2023-03-09T02:17:03;8.67;75.59
67364;HTU21D;54250;45.572;38.086;2023-03-09T02:19:40;8.65;75.71
67364;HTU21D;54250;45.572;38.086;2023-03-09T02:22:10;8.63;75.74
67364;HTU21D;54250;45.572;38.086;2023-03-09T02:27:26;8.60;76.15
67364;HTU21D;54250;45.572;38.086;2023-03-09T02:29:55;8.59;76.09
67364;HTU21D;54250;45.572;38.086;2023-03-09T02:32:23;8.53;76.23
67364;HTU21D;54250;45.572;38.086;2023-03-09T02:34:49;8.49;76.44
67364;HTU21D;54250;45.572;38.086;2023-03-09T02:37:24;8.45;76.19
67364;HTU21D;54250;45.572;38.086;2023-03-09T02:39:58;8.44;76.82
67364;HTU21D;54250;45.572;38.086;2023-03-09T02:42:25;8.33;76.45
67364;HTU21D;54250;45.572;38.086;2023-03-09T02:44:52;8.31;76.80
67364;HTU21D;54250;45.572;38.086;2023-03-09T02:47:21;8.30;77.20
67364;HTU21D;54250;45.572;38.086;2023-03-09T02:49:50;8.31;77.21
67364;HTU21D;54250;45.572;38.086;2023-03-09T02:52:17;8.29;77.27
67364;HTU21D;54250;45.572;38.086;2023-03-09T02:54:43;8.26;77.26
67364;HTU21D;54250;45.572;38.086;2023-03-09T02:57:09;8.21;77.49
67364;HTU21D;54250;45.572;38.086;2023-03-09T02:59:35;8.17;77.71
67364;HTU21D;54250;45.572;38.086;2023-03-09T03:02:01;8.17;77.60
67364;HTU21D;54250;45.572;38.086;2023-03-09T03:04:29;8.17;78.56
67364;HTU21D;54250;45.572;38.086;2023-03-09T03:06:55;8.26;78.71
67364;HTU21D;54250;45.572;38.086;2023-03-09T03:09:22;8.33;79.37
67364;HTU21D;54250;45.572;38.086;2023-03-09T03:11:48;8.37;79.06
67364;HTU21D;54250;45.572;38.086;2023-03-09T03:14:14;8.36;79.46
67364;HTU21D;54250;45.572;38.086;2023-03-09T03:16:40;8.38;79.50
67364;HTU21D;54250;45.572;38.086;2023-03-09T03:19:06;8.37;80.02
67364;HTU21D;54250;45.572;38.086;2023-03-09T03:21:35;8.37;80.17
67364;HTU21D;54250;45.572;38.086;2023-03-09T03:24:03;8.44;80.22
67364;HTU21D;54250;45.572;38.086;2023-03-09T03:26:31;8.43;80.36
67364;HTU21D;54250;45.572;38.086;2023-03-09T03:29:03;8.45;80.41
67364;HTU21D;54250;45.572;38.086;2023-03-09T03:31:30;8.37;80.22
67364;HTU21D;54250;45.572;38.086;2023-03-09T03:33:57;8.31;80.33
67364;HTU21D;54250;45.572;38.086;2023-03-09T03:36:25;8.26;80.38
67364;HTU21D;54250;45.572;38.086;2023-03-09T03:38:51;8.28;80.39
67364;HTU21D;54250;45.572;38.086;2023-03-09T03:41:18;8.30;80.25
67364;HTU21D;54250;45.572;38.086;2023-03-09T03:43:47;8.34;80.83
67364;HTU21D;54250;45.572;38.086;2023-03-09T03:46:14;8.33;80.55
67364;HTU21D;54250;45.572;38.086;2023-03-09T03:48:42;8.32;81.28
67364;HTU21D;54250;45.572;38.086;2023-03-09T03:51:09;8.36;80.89
67364;HTU21D;54250;45.572;38.086;2023-03-09T03:53:37;8.38;80.94
67364;HTU21D;54250;45.572;38.086;2023-03-09T03:56:04;8.39;80.83
67364;HTU21D;54250;45.572;38.086;2023-03-09T03:58:32;8.42;81.48
67364;HTU21D;54250;45.572;38.086;2023-03-09T04:00:59;8.46;81.35
67364;HTU21D;54250;45.572;38.086;2023-03-09T04:03:26;8.45;81.41
67364;HTU21D;54250;45.572;38.086;2023-03-09T04:05:53;8.45;81.52
67364;HTU21D;54250;45.572;38.086;2023-03-09T04:08:19;8.50;81.44
67364;HTU21D;54250;45.572;38.086;2023-03-09T04:10:47;8.51;81.52
67364;HTU21D;54250;45.572;38.086;2023-03-09T04:13:16;8.55;81.29
67364;HTU21D;54250;45.572;38.086;2023-03-09T04:15:42;8.81;81.60
67364;HTU21D;54250;45.572;38.086;2023-03-09T04:18:08;8.98;81.04
67364;HTU21D;54250;45.572;38.086;2023-03-09T04:20:37;9.01;80.93
67364;HTU21D;54250;45.572;38.086;2023-03-09T04:23:03;8.97;81.04
67364;HTU21D;54250;45.572;38.086;2023-03-09T04:25:30;9.00;81.30
67364;HTU21D;54250;45.572;38.086;2023-03-09T04:27:57;9.18;81.12
67364;HTU21D;54250;45.572;38.086;2023-03-09T04:30:31;9.67;80.43
67364;HTU21D;54250;45.572;38.086;2023-03-09T04:33:00;10.29;78.89
67364;HTU21D;54250;45.572;38.086;2023-03-09T04:35:26;10.43;78.69
67364;HTU21D;54250;45.572;38.086;2023-03-09T04:37:55;10.41;79.01
67364;HTU21D;54250;45.572;38.086;2023-03-09T04:40:22;10.48;79.07
67364;HTU21D;54250;45.572;38.086;2023-03-09T04:42:51;10.82;78.77
67364;HTU21D;54250;45.572;38.086;2023-03-09T04:45:17;11.61;77.34
67364;HTU21D;54250;45.572;38.086;2023-03-09T04:47:45;12.50;75.28
67364;HTU21D;54250;45.572;38.086;2023-03-09T04:50:11;13.38;73.55
67364;HTU21D;54250;45.572;38.086;2023-03-09T04:52:44;13.86;72.33
67364;HTU21D;54250;45.572;38.086;2023-03-09T04:55:10;13.89;72.30
67364;HTU21D;54250;45.572;38.086;2023-03-09T04:57:36;14.09;72.28
67364;HTU21D;54250;45.572;38.086;2023-03-09T05:00:04;14.27;71.67
67364;HTU21D;54250;45.572;38.086;2023-03-09T05:02:33;14.81;70.65
67364;HTU21D;54250;45.572;38.086;2023-03-09T05:04:59;15.19;69.70
67364;HTU21D;54250;45.572;38.086;2023-03-09T05:07:26;15.65;69.03
67364;HTU21D;54250;45.572;38.086;2023-03-09T05:09:53;16.16;67.87
67364;HTU21D;54250;45.572;38.086;2023-03-09T05:12:19;16.35;67.05
67364;HTU21D;54250;45.572;38.086;2023-03-09T05:14:45;16.79;66.53
67364;HTU21D;54250;45.572;38.086;2023-03-09T05:17:14;17.05;65.66
67364;HTU21D;54250;45.572;38.086;2023-03-09T05:19:40;17.13;65.67
67364;HTU21D;54250;45.572;38.086;2023-03-09T05:22:06;17.34;64.89
67364;HTU21D;54250;45.572;38.086;2023-03-09T05:24:33;17.28;64.37
67364;HTU21D;54250;45.572;38.086;2023-03-09T05:26:59;17.43;64.19
67364;HTU21D;54250;45.572;38.086;2023-03-09T05:29:29;17.74;63.73
67364;HTU21D;54250;45.572;38.086;2023-03-09T05:31:56;18.11;62.88
67364;HTU21D;54250;45.572;38.086;2023-03-09T05:34:22;18.48;62.50
67364;HTU21D;54250;45.572;38.086;2023-03-09T05:36:48;19.01;61.45
67364;HTU21D;54250;45.572;38.086;2023-03-09T05:39:21;19.99;59.77
67364;HTU21D;54250;45.572;38.086;2023-03-09T05:41:49;19.94;59.29
67364;HTU21D;54250;45.572;38.086;2023-03-09T05:44:21;20.22;58.74
67364;HTU21D;54250;45.572;38.086;2023-03-09T05:46:47;20.76;58.09
67364;HTU21D;54250;45.572;38.086;2023-03-09T05:49:13;20.98;57.43
67364;HTU21D;54250;45.572;38.086;2023-03-09T05:51:39;21.46;56.82
67364;HTU21D;54250;45.572;38.086;2023-03-09T05:54:05;21.55;56.31
67364;HTU21D;54250;45.572;38.086;2023-03-09T05:56:35;22.21;55.49
67364;HTU21D;54250;45.572;38.086;2023-03-09T05:59:04;22.20;54.90
67364;HTU21D;54250;45.572;38.086;2023-03-09T06:01:30;23.31;53.33
67364;HTU21D;54250;45.572;38.086;2023-03-09T06:04:11;23.71;52.01
67364;HTU21D;54250;45.572;38.086;2023-03-09T06:06:40;23.50;52.37
67364;HTU21D;54250;45.572;38.086;2023-03-09T06:09:06;23.42;52.56
67364;HTU21D;54250;45.572;38.086;2023-03-09T06:11:32;23.88;51.91
67364;HTU21D;54250;45.572;38.086;2023-03-09T06:13:58;24.29;50.65
67364;HTU21D;54250;45.572;38.086;2023-03-09T06:16:32;24.58;49.91
67364;HTU21D;54250;45.572;38.086;2023-03-09T06:18:58;24.76;49.69
67364;HTU21D;54250;45.572;38.086;2023-03-09T06:21:25;24.95;49.46
67364;HTU21D;54250;45.572;38.086;2023-03-09T06:23:55;25.13;49.45
67364;HTU21D;54250;45.572;38.086;2023-03-09T06:26:23;25.18;48.75
67364;HTU21D;54250;45.572;38.086;2023-03-09T06:28:55;25.62;48.12
67364;HTU21D;54250;45.572;38.086;2023-03-09T06:31:21;26.03;47.02
67364;HTU21D;54250;45.572;38.086;2023-03-09T06:33:51;26.06;47.40
67364;HTU21D;54250;45.572;38.086;2023-03-09T06:36:17;27.14;45.01
67364;HTU21D;54250;45.572;38.086;2023-03-09T06:38:46;27.21;44.74
67364;HTU21D;54250;45.572;38.086;2023-03-09T06:41:12;27.89;43.93
67364;HTU21D;54250;45.572;38.086;2023-03-09T06:43:40;27.91;43.30
67364;HTU21D;54250;45.572;38.086;2023-03-09T06:46:08;28.12;42.69
67364;HTU21D;54250;45.572;38.086;2023-03-09T06:48:35;27.71;43.10
67364;HTU21D;54250;45.572;38.086;2023-03-09T06:51:01;27.52;43.26
67364;HTU21D;54250;45.572;38.086;2023-03-09T06:53:28;26.84;43.90
67364;HTU21D;54250;45.572;38.086;2023-03-09T06:56:00;27.38;43.32
67364;HTU21D;54250;45.572;38.086;2023-03-09T06:58:27;27.98;42.55
67364;HTU21D;54250;45.572;38.086;2023-03-09T07:00:54;28.89;41.25
67364;HTU21D;54250;45.572;38.086;2023-03-09T07:03:20;29.15;40.53
67364;HTU21D;54250;45.572;38.086;2023-03-09T07:05:46;28.90;41.10
67364;HTU21D;54250;45.572;38.086;2023-03-09T07:08:12;28.58;40.88
67364;HTU21D;54250;45.572;38.086;2023-03-09T07:10:38;28.25;41.49
67364;HTU21D;54250;45.572;38.086;2023-03-09T07:13:05;29.08;39.85
67364;HTU21D;54250;45.572;38.086;2023-03-09T07:15:31;29.06;40.02
67364;HTU21D;54250;45.572;38.086;2023-03-09T07:17:57;28.93;40.36
67364;HTU21D;54250;45.572;38.086;2023-03-09T07:20:23;29.78;38.73
67364;HTU21D;54250;45.572;38.086;2023-03-09T07:22:49;29.06;38.90
67364;HTU21D;54250;45.572;38.086;2023-03-09T07:25:15;26.85;41.37
67364;HTU21D;54250;45.572;38.086;2023-03-09T07:27:42;26.39;42.55
67364;HTU21D;54250;45.572;38.086;2023-03-09T07:30:08;26.12;42.12
67364;HTU21D;54250;45.572;38.086;2023-03-09T07:32:35;25.02;43.90
67364;HTU21D;54250;45.572;38.086;2023-03-09T07:35:00;24.36;44.84
67364;HTU21D;54250;45.572;38.086;2023-03-09T07:37:26;23.55;46.09
67364;HTU21D;54250;45.572;38.086;2023-03-09T07:39:52;22.86;47.03
67364;HTU21D;54250;45.572;38.086;2023-03-09T07:42:18;24.40;45.32
67364;HTU21D;54250;45.572;38.086;2023-03-09T07:44:58;26.17;41.29
67364;HTU21D;54250;45.572;38.086;2023-03-09T07:47:24;27.23;40.33
67364;HTU21D;54250;45.572;38.086;2023-03-09T07:49:50;28.21;38.95
67364;HTU21D;54250;45.572;38.086;2023-03-09T07:52:16;29.32;37.04
67364;HTU21D;54250;45.572;38.086;2023-03-09T07:54:42;28.86;37.46
67364;HTU21D;54250;45.572;38.086;2023-03-09T07:57:08;28.88;37.46
67364;HTU21D;54250;45.572;38.086;2023-03-09T07:59:34;29.06;37.32
67364;HTU21D;54250;45.572;38.086;2023-03-09T08:02:00;28.95;37.07
67364;HTU21D;54250;45.572;38.086;2023-03-09T08:04:26;28.01;38.29
67364;HTU21D;54250;45.572;38.086;2023-03-09T08:06:52;28.09;38.07
67364;HTU21D;54250;45.572;38.086;2023-03-09T08:09:18;27.80;38.24
67364;HTU21D;54250;45.572;38.086;2023-03-09T08:11:45;26.71;39.20
67364;HTU21D;54250;45.572;38.086;2023-03-09T08:14:11;25.89;40.51
67364;HTU21D;54250;45.572;38.086;2023-03-09T08:16:37;26.05;40.50
67364;HTU21D;54250;45.572;38.086;2023-03-09T08:19:03;26.89;39.27
67364;HTU21D;54250;45.572;38.086;2023-03-09T08:21:29;27.57;38.07
67364;HTU21D;54250;45.572;38.086;2023-03-09T08:23:57;27.93;37.18
67364;HTU21D;54250;45.572;38.086;2023-03-09T08:26:23;28.20;37.06
67364;HTU21D;54250;45.572;38.086;2023-03-09T08:28:49;28.48;36.45
67364;HTU21D;54250;45.572;38.086;2023-03-09T08:31:15;28.05;36.77
67364;HTU21D;54250;45.572;38.086;2023-03-09T08:33:45;27.29;37.77
67364;HTU21D;54250;45.572;38.086;2023-03-09T08:36:16;26.82;38.47
67364;HTU21D;54250;45.572;38.086;2023-03-09T08:38:44;26.45;38.91
67364;HTU21D;54250;45.572;38.086;2023-03-09T08:41:10;26.70;38.82
67364;HTU21D;54250;45.572;38.086;2023-03-09T08:43:36;27.38;37.83
67364;HTU21D;54250;45.572;38.086;2023-03-09T08:46:02;27.23;38.10
67364;HTU21D;54250;45.572;38.086;2023-03-09T08:48:28;27.29;38.49
67364;HTU21D;54250;45.572;38.086;2023-03-09T08:50:54;27.98;38.08
67364;HTU21D;54250;45.572;38.086;2023-03-09T08:53:20;28.48;36.78
67364;HTU21D;54250;45.572;38.086;2023-03-09T08:55:46;28.92;36.13
67364;HTU21D;54250;45.572;38.086;2023-03-09T08:58:12;28.73;36.53
67364;HTU21D;54250;45.572;38.086;2023-03-09T09:00:38;28.59;36.62
67364;HTU21D;54250;45.572;38.086;2023-03-09T09:03:04;28.45;37.01
67364;HTU21D;54250;45.572;38.086;2023-03-09T09:05:31;27.60;38.10
67364;HTU21D;54250;45.572;38.086;2023-03-09T09:07:57;26.79;38.37
67364;HTU21D;54250;45.572;38.086;2023-03-09T09:10:23;26.56;38.83
67364;HTU21D;54250;45.572;38.086;2023-03-09T09:12:48;26.49;39.07
67364;HTU21D;54250;45.572;38.086;2023-03-09T09:15:14;25.98;39.46
67364;HTU21D;54250;45.572;38.086;2023-03-09T09:17:41;24.49;41.29
67364;HTU21D;54250;45.572;38.086;2023-03-09T09:20:08;23.01;43.36
67364;HTU21D;54250;45.572;38.086;2023-03-09T09:22:35;22.01;44.83
67364;HTU21D;54250;45.572;38.086;2023-03-09T09:25:01;21.32;46.22
67364;HTU21D;54250;45.572;38.086;2023-03-09T09:27:27;21.05;46.77
67364;HTU21D;54250;45.572;38.086;2023-03-09T09:29:53;21.17;46.90
67364;HTU21D;54250;45.572;38.086;2023-03-09T09:32:19;21.57;46.41
67364;HTU21D;54250;45.572;38.086;2023-03-09T09:34:45;22.28;45.64
67364;HTU21D;54250;45.572;38.086;2023-03-09T09:37:12;22.79;44.38
67364;HTU21D;54250;45.572;38.086;2023-03-09T09:39:38;21.99;45.42
67364;HTU21D;54250;45.572;38.086;2023-03-09T09:42:29;21.74;46.36
67364;HTU21D;54250;45.572;38.086;2023-03-09T09:44:56;22.41;45.49
67364;HTU21D;54250;45.572;38.086;2023-03-09T09:47:24;22.19;45.85
67364;HTU21D;54250;45.572;38.086;2023-03-09T09:49:53;21.67;46.59
67364;HTU21D;54250;45.572;38.086;2023-03-09T09:55:13;21.30;47.68
67364;HTU21D;54250;45.572;38.086;2023-03-09T09:58:17;21.21;47.99
67364;HTU21D;54250;45.572;38.086;2023-03-09T10:00:53;21.27;48.18
67364;HTU21D;54250;45.572;38.086;2023-03-09T10:03:27;21.34;48.12
67364;HTU21D;54250;45.572;38.086;2023-03-09T10:06:21;21.32;48.24
67364;HTU21D;54250;45.572;38.086;2023-03-09T10:08:54;20.99;48.86
67364;HTU21D;54250;45.572;38.086;2023-03-09T10:16:35;20.50;49.81
67364;HTU21D;54250;45.572;38.086;2023-03-09T10:19:08;20.58;49.80
67364;HTU21D;54250;45.572;38.086;2023-03-09T10:24:31;20.36;50.25
67364;HTU21D;54250;45.572;38.086;2023-03-09T10:32:21;21.15;49.61
67364;HTU21D;54250;45.572;38.086;2023-03-09T10:34:58;21.40;48.99
67364;HTU21D;54250;45.572;38.086;2023-03-09T10:37:34;21.06;49.53
67364;HTU21D;54250;45.572;38.086;2023-03-09T10:40:06;20.68;49.98
67364;HTU21D;54250;45.572;38.086;2023-03-09T10:42:36;20.30;50.77
67364;HTU21D;54250;45.572;38.086;2023-03-09T10:45:05;20.02;51.33
67364;HTU21D;54250;45.572;38.086;2023-03-09T10:50:25;19.66;52.07
67364;HTU21D;54250;45.572;38.086;2023-03-09T10:52:53;19.59;52.27
67364;HTU21D;54250;45.572;38.086;2023-03-09T10:57:59;19.46;52.36
67364;HTU21D;54250;45.572;38.086;2023-03-09T11:00:25;19.35;52.56
67364;HTU21D;54250;45.572;38.086;2023-03-09T11:02:53;19.28;52.78
67364;HTU21D;54250;45.572;38.086;2023-03-09T11:05:22;19.39;52.76
67364;HTU21D;54250;45.572;38.086;2023-03-09T11:07:50;19.54;52.57
67364;HTU21D;54250;45.572;38.086;2023-03-09T11:12:49;19.54;52.55
67364;HTU21D;54250;45.572;38.086;2023-03-09T11:17:44;19.28;53.03
67364;HTU21D;54250;45.572;38.086;2023-03-09T11:20:33;19.29;53.07
67364;HTU21D;54250;45.572;38.086;2023-03-09T11:26:26;19.36;52.89
67364;HTU21D;54250;45.572;38.086;2023-03-09T11:31:38;19.11;53.39
67364;HTU21D;54250;45.572;38.086;2023-03-09T11:34:15;19.10;53.48
67364;HTU21D;54250;45.572;38.086;2023-03-09T11:39:19;18.69;54.48
67364;HTU21D;54250;45.572;38.086;2023-03-09T11:41:47;18.68;54.75
67364;HTU21D;54250;45.572;38.086;2023-03-09T11:44:41;18.51;55.02
67364;HTU21D;54250;45.572;38.086;2023-03-09T11:47:32;18.20;55.52
67364;HTU21D;54250;45.572;38.086;2023-03-09T11:50:04;18.02;56.03
67364;HTU21D;54250;45.572;38.086;2023-03-09T11:52:38;18.03;56.42
67364;HTU21D;54250;45.572;38.086;2023-03-09T11:55:12;18.19;56.55
67364;HTU21D;54250;45.572;38.086;2023-03-09T11:57:43;18.20;56.36
67364;HTU21D;54250;45.572;38.086;2023-03-09T12:00:17;18.19;56.56
67364;HTU21D;54250;45.572;38.086;2023-03-09T12:03:05;18.18;56.52
67364;HTU21D;54250;45.572;38.086;2023-03-09T12:05:38;18.03;56.92
67364;HTU21D;54250;45.572;38.086;2023-03-09T12:11:15;17.83;57.55
67364;HTU21D;54250;45.572;38.086;2023-03-09T12:16:39;17.81;57.61
67364;HTU21D;54250;45.572;38.086;2023-03-09T12:21:38;17.75;57.80
67364;HTU21D;54250;45.572;38.086;2023-03-09T12:29:46;17.63;58.26
67364;HTU21D;54250;45.572;38.086;2023-03-09T12:34:55;17.75;58.11
67364;HTU21D;54250;45.572;38.086;2023-03-09T12:42:44;17.94;58.02
67364;HTU21D;54250;45.572;38.086;2023-03-09T13:03:25;17.77;57.45
67364;HTU21D;54250;45.572;38.086;2023-03-09T13:06:04;17.53;57.79
67364;HTU21D;54250;45.572;38.086;2023-03-09T13:08:40;17.30;58.01
67364;HTU21D;54250;45.572;38.086;2023-03-09T13:13:52;16.89;58.25
67364;HTU21D;54250;45.572;38.086;2023-03-09T13:24:24;16.25;58.55
67364;HTU21D;54250;45.572;38.086;2023-03-09T13:26:55;16.20;58.39
67364;HTU21D;54250;45.572;38.086;2023-03-09T13:29:24;16.16;58.19
67364;HTU21D;54250;45.572;38.086;2023-03-09T13:31:51;16.14;58.17
67364;HTU21D;54250;45.572;38.086;2023-03-09T13:34:20;16.12;58.17
67364;HTU21D;54250;45.572;38.086;2023-03-09T13:36:48;16.11;58.19
67364;HTU21D;54250;45.572;38.086;2023-03-09T13:39:20;16.08;58.16
67364;HTU21D;54250;45.572;38.086;2023-03-09T13:41:46;16.08;58.13
67364;HTU21D;54250;45.572;38.086;2023-03-09T13:44:19;16.05;58.17
67364;HTU21D;54250;45.572;38.086;2023-03-09T13:46:50;16.04;58.24
67364;HTU21D;54250;45.572;38.086;2023-03-09T13:49:29;15.99;58.41
67364;HTU21D;54250;45.572;38.086;2023-03-09T13:52:15;15.96;58.48
67364;HTU21D;54250;45.572;38.086;2023-03-09T13:54:53;15.91;58.37
67364;HTU21D;54250;45.572;38.086;2023-03-09T13:59:58;15.81;58.45
67364;HTU21D;54250;45.572;38.086;2023-03-09T14:02:29;15.74;58.50
67364;HTU21D;54250;45.572;38.086;2023-03-09T14:07:25;15.65;58.66
67364;HTU21D;54250;45.572;38.086;2023-03-09T14:10:21;15.55;58.77
67364;HTU21D;54250;45.572;38.086;2023-03-09T14:12:52;15.51;58.91
67364;HTU21D;54250;45.572;38.086;2023-03-09T14:15:19;15.43;59.06
67364;HTU21D;54250;45.572;38.086;2023-03-09T14:17:47;15.39;59.24
67364;HTU21D;54250;45.572;38.086;2023-03-09T14:20:20;15.34;59.33
67364;HTU21D;54250;45.572;38.086;2023-03-09T14:22:47;15.31;59.48
67364;HTU21D;54250;45.572;38.086;2023-03-09T14:25:33;15.28;59.57
67364;HTU21D;54250;45.572;38.086;2023-03-09T14:27:59;15.27;59.67
67364;HTU21D;54250;45.572;38.086;2023-03-09T14:33:01;15.27;59.89
67364;HTU21D;54250;45.572;38.086;2023-03-09T14:35:37;15.25;59.90
67364;HTU21D;54250;45.572;38.086;2023-03-09T14:38:19;15.18;60.02
67364;HTU21D;54250;45.572;38.086;2023-03-09T14:40:46;15.13;60.13
67364;HTU21D;54250;45.572;38.086;2023-03-09T14:45:50;15.07;60.30
67364;HTU21D;54250;45.572;38.086;2023-03-09T14:48:17;15.06;60.31
67364;HTU21D;54250;45.572;38.086;2023-03-09T14:50:44;15.01;60.42
67364;HTU21D;54250;45.572;38.086;2023-03-09T14:53:14;14.96;60.56
67364;HTU21D;54250;45.572;38.086;2023-03-09T14:55:40;14.93;60.64
67364;HTU21D;54250;45.572;38.086;2023-03-09T14:58:10;14.89;60.82
67364;HTU21D;54250;45.572;38.086;2023-03-09T15:00:37;14.84;60.93
67364;HTU21D;54250;45.572;38.086;2023-03-09T15:03:04;14.80;60.96
67364;HTU21D;54250;45.572;38.086;2023-03-09T15:05:31;14.75;60.96
67364;HTU21D;54250;45.572;38.086;2023-03-09T15:07:57;14.69;61.02
67364;HTU21D;54250;45.572;38.086;2023-03-09T15:10:25;14.60;61.05
67364;HTU21D;54250;45.572;38.086;2023-03-09T15:12:52;14.54;61.08
67364;HTU21D;54250;45.572;38.086;2023-03-09T15:15:22;14.42;61.24
67364;HTU21D;54250;45.572;38.086;2023-03-09T15:17:49;14.30;61.38
67364;HTU21D;54250;45.572;38.086;2023-03-09T15:20:21;14.18;61.50
67364;HTU21D;54250;45.572;38.086;2023-03-09T15:22:47;14.08;61.64
67364;HTU21D;54250;45.572;38.086;2023-03-09T15:25:15;13.96;61.67
67364;HTU21D;54250;45.572;38.086;2023-03-09T15:27:42;13.88;61.69
67364;HTU21D;54250;45.572;38.086;2023-03-09T15:30:11;13.74;61.74
67364;HTU21D;54250;45.572;38.086;2023-03-09T15:32:38;13.65;61.86
67364;HTU21D;54250;45.572;38.086;2023-03-09T15:35:05;13.59;61.87
67364;HTU21D;54250;45.572;38.086;2023-03-09T15:37:31;13.53;61.86
67364;HTU21D;54250;45.572;38.086;2023-03-09T15:39:57;13.46;61.89
67364;HTU21D;54250;45.572;38.086;2023-03-09T15:42:23;13.39;61.91
67364;HTU21D;54250;45.572;38.086;2023-03-09T15:44:49;13.31;62.00
67364;HTU21D;54250;45.572;38.086;2023-03-09T15:47:15;13.20;62.15
67364;HTU21D;54250;45.572;38.086;2023-03-09T15:49:42;13.11;62.25
67364;HTU21D;54250;45.572;38.086;2023-03-09T15:52:09;13.06;62.35
67364;HTU21D;54250;45.572;38.086;2023-03-09T15:54:35;13.03;62.47
67364;HTU21D;54250;45.572;38.086;2023-03-09T15:57:01;13.02;62.59
67364;HTU21D;54250;45.572;38.086;2023-03-09T15:59:27;12.97;62.53
67364;HTU21D;54250;45.572;38.086;2023-03-09T16:01:53;12.88;62.72
67364;HTU21D;54250;45.572;38.086;2023-03-09T16:04:19;12.79;63.01
67364;HTU21D;54250;45.572;38.086;2023-03-09T16:06:45;12.71;63.24
67364;HTU21D;54250;45.572;38.086;2023-03-09T16:09:11;12.63;63.31
67364;HTU21D;54250;45.572;38.086;2023-03-09T16:11:37;12.53;63.45
67364;HTU21D;54250;45.572;38.086;2023-03-09T16:14:04;12.43;63.59
67364;HTU21D;54250;45.572;38.086;2023-03-09T16:16:30;12.34;63.73
67364;HTU21D;54250;45.572;38.086;2023-03-09T16:18:56;12.30;63.84
67364;HTU21D;54250;45.572;38.086;2023-03-09T16:21:22;12.21;64.11
67364;HTU21D;54250;45.572;38.086;2023-03-09T16:23:48;12.14;64.26
67364;HTU21D;54250;45.572;38.086;2023-03-09T16:26:19;12.04;64.27
67364;HTU21D;54250;45.572;38.086;2023-03-09T16:28:46;11.91;64.53
67364;HTU21D;54250;45.572;38.086;2023-03-09T16:31:19;11.82;64.70
67364;HTU21D;54250;45.572;38.086;2023-03-09T16:33:45;11.75;64.92
67364;HTU21D;54250;45.572;38.086;2023-03-09T16:36:11;11.77;65.06
67364;HTU21D;54250;45.572;38.086;2023-03-09T16:38:38;11.78;64.98
67364;HTU21D;54250;45.572;38.086;2023-03-09T16:41:08;11.77;65.08
67364;HTU21D;54250;45.572;38.086;2023-03-09T16:43:34;11.70;65.03
67364;HTU21D;54250;45.572;38.086;2023-03-09T16:46:00;11.59;65.22
67364;HTU21D;54250;45.572;38.086;2023-03-09T16:48:26;11.52;65.39
67364;HTU21D;54250;45.572;38.086;2023-03-09T16:50:59;11.45;65.36
67364;HTU21D;54250;45.572;38.086;2023-03-09T16:53:26;11.42;65.59
67364;HTU21D;54250;45.572;38.086;2023-03-09T16:56:01;11.39;65.55